sensor_id;sensor_type;location;lat;lon;timestamp;P1;durP1;ratioP1;P2;durP2;ratioP2
81629;SDS011;71039;49.500;10.418;2023-11-19T00:01:07;2.65;;;2.55;;
81629;SDS011;71039;49.500;10.418;2023-11-19T00:03:33;2.28;;;2.17;;
81629;SDS011;71039;49.500;10.418;2023-11-19T00:05:58;2.42;;;2.33;;
81629;SDS011;71039;49.500;10.418;2023-11-19T00:08:24;2.38;;;2.28;;
81629;SDS011;71039;49.500;10.418;2023-11-19T00:10:50;2.42;;;2.33;;
81629;SDS011;71039;49.500;10.418;2023-11-19T00:13:15;2.47;;;2.28;;
81629;SDS011;71039;49.500;10.418;2023-11-19T00:15:41;2.15;;;2.05;;
81629;SDS011;71039;49.500;10.418;2023-11-19T00:18:06;2.28;;;2.17;;
81629;SDS011;71039;49.500;10.418;2023-11-19T00:20:32;2.05;;;1.95;;
81629;SDS011;71039;49.500;10.418;2023-11-19T00:22:57;1.92;;;1.83;;
81629;SDS011;71039;49.500;10.418;2023-11-19T00:25:23;2.00;;;1.83;;
81629;SDS011;71039;49.500;10.418;2023-11-19T00:27:49;2.35;;;2.25;;
81629;SDS011;71039;49.500;10.418;2023-11-19T00:30:15;2.08;;;1.92;;
81629;SDS011;71039;49.500;10.418;2023-11-19T00:32:41;2.25;;;1.92;;
81629;SDS011;71039;49.500;10.418;2023-11-19T00:35:07;1.73;;;1.70;;
81629;SDS011;71039;49.500;10.418;2023-11-19T00:37:33;2.10;;;2.00;;
81629;SDS011;71039;49.500;10.418;2023-11-19T00:39:59;2.15;;;2.05;;
81629;SDS011;71039;49.500;10.418;2023-11-19T00:42:24;2.78;;;2.63;;
81629;SDS011;71039;49.500;10.418;2023-11-19T00:44:50;2.40;;;2.30;;
81629;SDS011;71039;49.500;10.418;2023-11-19T00:47:16;1.90;;;1.80;;
81629;SDS011;71039;49.500;10.418;2023-11-19T00:49:42;2.80;;;2.70;;
81629;SDS011;71039;49.500;10.418;2023-11-19T00:52:08;2.03;;;1.92;;
81629;SDS011;71039;49.500;10.418;2023-11-19T00:54:33;2.92;;;2.80;;
81629;SDS011;71039;49.500;10.418;2023-11-19T00:56:59;2.58;;;2.47;;
81629;SDS011;71039;49.500;10.418;2023-11-19T00:59:24;2.25;;;2.15;;
81629;SDS011;71039;49.500;10.418;2023-11-19T01:01:50;1.92;;;1.83;;
81629;SDS011;71039;49.500;10.418;2023-11-19T01:04:16;2.50;;;2.40;;
81629;SDS011;71039;49.500;10.418;2023-11-19T01:06:41;2.30;;;2.20;;
81629;SDS011;71039;49.500;10.418;2023-11-19T01:09:07;2.63;;;2.53;;
81629;SDS011;71039;49.500;10.418;2023-11-19T01:11:33;1.92;;;1.83;;
81629;SDS011;71039;49.500;10.418;2023-11-19T01:14:00;2.30;;;2.20;;
81629;SDS011;71039;49.500;10.418;2023-11-19T01:16:25;2.47;;;2.38;;
81629;SDS011;71039;49.500;10.418;2023-11-19T01:18:51;2.03;;;1.92;;
81629;SDS011;71039;49.500;10.418;2023-11-19T01:21:17;2.25;;;2.15;;
81629;SDS011;71039;49.500;10.418;2023-11-19T01:23:43;1.88;;;1.77;;
81629;SDS011;71039;49.500;10.418;2023-11-19T01:26:09;2.03;;;1.92;;
81629;SDS011;71039;49.500;10.418;2023-11-19T01:28:35;2.67;;;2.58;;
81629;SDS011;71039;49.500;10.418;2023-11-19T01:31:01;3.00;;;2.80;;
81629;SDS011;71039;49.500;10.418;2023-11-19T01:33:27;1.70;;;1.60;;
81629;SDS011;71039;49.500;10.418;2023-11-19T01:35:53;2.38;;;2.28;;
81629;SDS011;71039;49.500;10.418;2023-11-19T01:38:18;2.17;;;2.08;;
81629;SDS011;71039;49.500;10.418;2023-11-19T01:40:44;2.30;;;2.20;;
81629;SDS011;71039;49.500;10.418;2023-11-19T01:43:09;2.13;;;2.03;;
81629;SDS011;71039;49.500;10.418;2023-11-19T01:45:35;2.20;;;2.10;;
81629;SDS011;71039;49.500;10.418;2023-11-19T01:48:02;2.22;;;2.13;;
81629;SDS011;71039;49.500;10.418;2023-11-19T01:50:28;2.45;;;2.25;;
81629;SDS011;71039;49.500;10.418;2023-11-19T01:52:53;1.98;;;1.88;;
81629;SDS011;71039;49.500;10.418;2023-11-19T01:55:20;2.17;;;2.08;;
81629;SDS011;71039;49.500;10.418;2023-11-19T01:57:47;2.40;;;2.30;;
81629;SDS011;71039;49.500;10.418;2023-11-19T02:00:14;2.03;;;1.92;;
81629;SDS011;71039;49.500;10.418;2023-11-19T02:05:08;2.05;;;1.95;;
81629;SDS011;71039;49.500;10.418;2023-11-19T02:07:34;2.45;;;2.35;;
81629;SDS011;71039;49.500;10.418;2023-11-19T02:09:59;2.08;;;1.98;;
81629;SDS011;71039;49.500;10.418;2023-11-19T02:12:25;2.38;;;2.28;;
81629;SDS011;71039;49.500;10.418;2023-11-19T02:14:51;1.92;;;1.83;;
81629;SDS011;71039;49.500;10.418;2023-11-19T02:19:54;2.20;;;2.10;;
81629;SDS011;71039;49.500;10.418;2023-11-19T02:22:20;1.98;;;1.88;;
81629;SDS011;71039;49.500;10.418;2023-11-19T02:24:46;1.77;;;1.67;;
81629;SDS011;71039;49.500;10.418;2023-11-19T02:27:18;2.50;;;2.40;;
81629;SDS011;71039;49.500;10.418;2023-11-19T02:30:02;2.17;;;2.08;;
81629;SDS011;71039;49.500;10.418;2023-11-19T02:32:28;2.50;;;2.40;;
81629;SDS011;71039;49.500;10.418;2023-11-19T02:34:54;2.38;;;2.28;;
81629;SDS011;71039;49.500;10.418;2023-11-19T02:37:19;2.47;;;2.38;;
81629;SDS011;71039;49.500;10.418;2023-11-19T02:39:45;2.25;;;2.15;;
81629;SDS011;71039;49.500;10.418;2023-11-19T02:42:10;2.28;;;2.17;;
81629;SDS011;71039;49.500;10.418;2023-11-19T02:44:36;2.17;;;2.08;;
81629;SDS011;71039;49.500;10.418;2023-11-19T02:47:01;2.38;;;2.25;;
81629;SDS011;71039;49.500;10.418;2023-11-19T02:49:27;2.08;;;1.98;;
81629;SDS011;71039;49.500;10.418;2023-11-19T02:51:52;1.92;;;1.83;;
81629;SDS011;71039;49.500;10.418;2023-11-19T02:54:18;2.10;;;1.88;;
81629;SDS011;71039;49.500;10.418;2023-11-19T02:56:43;1.60;;;1.60;;
81629;SDS011;71039;49.500;10.418;2023-11-19T02:59:09;2.40;;;2.30;;
81629;SDS011;71039;49.500;10.418;2023-11-19T03:01:34;1.45;;;1.45;;
81629;SDS011;71039;49.500;10.418;2023-11-19T03:04:00;1.83;;;1.83;;
81629;SDS011;71039;49.500;10.418;2023-11-19T03:06:26;1.70;;;1.70;;
81629;SDS011;71039;49.500;10.418;2023-11-19T03:08:52;1.80;;;1.80;;
81629;SDS011;71039;49.500;10.418;2023-11-19T03:11:17;1.73;;;1.73;;
81629;SDS011;71039;49.500;10.418;2023-11-19T03:13:43;1.65;;;1.55;;
81629;SDS011;71039;49.500;10.418;2023-11-19T03:16:08;1.95;;;1.88;;
81629;SDS011;71039;49.500;10.418;2023-11-19T03:18:34;1.50;;;1.50;;
81629;SDS011;71039;49.500;10.418;2023-11-19T03:20:59;2.17;;;2.08;;
81629;SDS011;71039;49.500;10.418;2023-11-19T03:23:25;1.77;;;1.67;;
81629;SDS011;71039;49.500;10.418;2023-11-19T03:25:50;1.77;;;1.73;;
81629;SDS011;71039;49.500;10.418;2023-11-19T03:28:16;1.67;;;1.67;;
81629;SDS011;71039;49.500;10.418;2023-11-19T03:30:42;2.20;;;2.10;;
81629;SDS011;71039;49.500;10.418;2023-11-19T03:33:07;1.52;;;1.52;;
81629;SDS011;71039;49.500;10.418;2023-11-19T03:35:33;1.67;;;1.67;;
81629;SDS011;71039;49.500;10.418;2023-11-19T03:37:58;1.58;;;1.58;;
81629;SDS011;71039;49.500;10.418;2023-11-19T03:40:24;1.33;;;1.33;;
81629;SDS011;71039;49.500;10.418;2023-11-19T03:42:50;1.48;;;1.48;;
81629;SDS011;71039;49.500;10.418;2023-11-19T03:45:15;1.55;;;1.55;;
81629;SDS011;71039;49.500;10.418;2023-11-19T03:47:41;2.08;;;2.05;;
81629;SDS011;71039;49.500;10.418;2023-11-19T03:50:07;2.15;;;2.05;;
81629;SDS011;71039;49.500;10.418;2023-11-19T03:52:33;1.42;;;1.42;;
81629;SDS011;71039;49.500;10.418;2023-11-19T03:54:59;1.50;;;1.50;;
81629;SDS011;71039;49.500;10.418;2023-11-19T03:57:24;1.23;;;1.23;;
81629;SDS011;71039;49.500;10.418;2023-11-19T03:59:50;1.75;;;1.75;;
81629;SDS011;71039;49.500;10.418;2023-11-19T04:02:16;1.33;;;1.33;;
81629;SDS011;71039;49.500;10.418;2023-11-19T04:04:41;1.40;;;1.40;;
81629;SDS011;71039;49.500;10.418;2023-11-19T04:07:07;1.35;;;1.35;;
81629;SDS011;71039;49.500;10.418;2023-11-19T04:09:33;1.25;;;1.25;;
81629;SDS011;71039;49.500;10.418;2023-11-19T04:11:59;0.98;;;0.98;;
81629;SDS011;71039;49.500;10.418;2023-11-19T04:14:25;1.75;;;1.75;;
81629;SDS011;71039;49.500;10.418;2023-11-19T04:16:51;1.80;;;1.80;;
81629;SDS011;71039;49.500;10.418;2023-11-19T04:19:17;1.77;;;1.77;;
81629;SDS011;71039;49.500;10.418;2023-11-19T04:21:43;1.48;;;1.48;;
81629;SDS011;71039;49.500;10.418;2023-11-19T04:24:09;1.88;;;1.83;;
81629;SDS011;71039;49.500;10.418;2023-11-19T04:26:35;1.27;;;1.27;;
81629;SDS011;71039;49.500;10.418;2023-11-19T04:29:00;2.08;;;2.00;;
81629;SDS011;71039;49.500;10.418;2023-11-19T04:31:29;1.45;;;1.45;;
81629;SDS011;71039;49.500;10.418;2023-11-19T04:33:55;1.50;;;1.50;;
81629;SDS011;71039;49.500;10.418;2023-11-19T04:36:20;1.25;;;1.25;;
81629;SDS011;71039;49.500;10.418;2023-11-19T04:38:46;1.20;;;1.20;;
81629;SDS011;71039;49.500;10.418;2023-11-19T04:41:11;0.90;;;0.90;;
81629;SDS011;71039;49.500;10.418;2023-11-19T04:43:37;1.30;;;1.30;;
81629;SDS011;71039;49.500;10.418;2023-11-19T04:46:03;1.23;;;1.23;;
81629;SDS011;71039;49.500;10.418;2023-11-19T04:48:29;1.00;;;1.00;;
81629;SDS011;71039;49.500;10.418;2023-11-19T04:50:54;1.45;;;1.45;;
81629;SDS011;71039;49.500;10.418;2023-11-19T04:53:20;1.60;;;1.60;;
81629;SDS011;71039;49.500;10.418;2023-11-19T04:55:45;1.23;;;1.23;;
81629;SDS011;71039;49.500;10.418;2023-11-19T04:58:11;1.48;;;1.48;;
81629;SDS011;71039;49.500;10.418;2023-11-19T05:00:36;1.58;;;1.58;;
81629;SDS011;71039;49.500;10.418;2023-11-19T05:03:02;1.83;;;1.83;;
81629;SDS011;71039;49.500;10.418;2023-11-19T05:05:27;2.05;;;1.95;;
81629;SDS011;71039;49.500;10.418;2023-11-19T05:07:53;1.60;;;1.60;;
81629;SDS011;71039;49.500;10.418;2023-11-19T05:10:19;1.08;;;1.08;;
81629;SDS011;71039;49.500;10.418;2023-11-19T05:12:44;1.58;;;1.58;;
81629;SDS011;71039;49.500;10.418;2023-11-19T05:15:10;1.38;;;1.38;;
81629;SDS011;71039;49.500;10.418;2023-11-19T05:17:35;1.85;;;1.75;;
81629;SDS011;71039;49.500;10.418;2023-11-19T05:20:01;1.33;;;1.33;;
81629;SDS011;71039;49.500;10.418;2023-11-19T05:22:26;1.55;;;1.48;;
81629;SDS011;71039;49.500;10.418;2023-11-19T05:24:52;1.40;;;1.40;;
81629;SDS011;71039;49.500;10.418;2023-11-19T05:27:17;1.65;;;1.65;;
81629;SDS011;71039;49.500;10.418;2023-11-19T05:29:43;1.20;;;1.20;;
81629;SDS011;71039;49.500;10.418;2023-11-19T05:32:08;1.38;;;1.38;;
81629;SDS011;71039;49.500;10.418;2023-11-19T05:34:34;1.38;;;1.38;;
81629;SDS011;71039;49.500;10.418;2023-11-19T05:37:00;1.23;;;1.23;;
81629;SDS011;71039;49.500;10.418;2023-11-19T05:39:25;1.25;;;1.25;;
81629;SDS011;71039;49.500;10.418;2023-11-19T05:41:51;1.38;;;1.38;;
81629;SDS011;71039;49.500;10.418;2023-11-19T05:44:16;1.10;;;1.10;;
81629;SDS011;71039;49.500;10.418;2023-11-19T05:46:42;1.63;;;1.63;;
81629;SDS011;71039;49.500;10.418;2023-11-19T05:49:11;1.77;;;1.77;;
81629;SDS011;71039;49.500;10.418;2023-11-19T05:51:40;1.25;;;1.25;;
81629;SDS011;71039;49.500;10.418;2023-11-19T05:54:09;1.13;;;1.13;;
81629;SDS011;71039;49.500;10.418;2023-11-19T05:56:35;1.30;;;1.27;;
81629;SDS011;71039;49.500;10.418;2023-11-19T05:59:01;1.65;;;1.65;;
81629;SDS011;71039;49.500;10.418;2023-11-19T06:01:26;1.42;;;1.42;;
81629;SDS011;71039;49.500;10.418;2023-11-19T06:03:52;1.30;;;1.30;;
81629;SDS011;71039;49.500;10.418;2023-11-19T06:06:18;0.85;;;0.85;;
81629;SDS011;71039;49.500;10.418;2023-11-19T06:08:43;1.30;;;1.30;;
81629;SDS011;71039;49.500;10.418;2023-11-19T06:11:09;1.60;;;1.60;;
81629;SDS011;71039;49.500;10.418;2023-11-19T06:13:35;1.95;;;1.95;;
81629;SDS011;71039;49.500;10.418;2023-11-19T06:16:01;1.85;;;1.80;;
81629;SDS011;71039;49.500;10.418;2023-11-19T06:18:26;1.92;;;1.90;;
81629;SDS011;71039;49.500;10.418;2023-11-19T06:20:52;1.52;;;1.52;;
81629;SDS011;71039;49.500;10.418;2023-11-19T06:23:17;1.90;;;1.17;;
81629;SDS011;71039;49.500;10.418;2023-11-19T06:25:43;2.70;;;2.60;;
81629;SDS011;71039;49.500;10.418;2023-11-19T06:28:08;2.67;;;2.55;;
81629;SDS011;71039;49.500;10.418;2023-11-19T06:30:34;1.40;;;1.40;;
81629;SDS011;71039;49.500;10.418;2023-11-19T06:32:59;1.65;;;1.65;;
81629;SDS011;71039;49.500;10.418;2023-11-19T06:35:25;1.48;;;1.38;;
81629;SDS011;71039;49.500;10.418;2023-11-19T06:37:50;2.25;;;2.15;;
81629;SDS011;71039;49.500;10.418;2023-11-19T06:40:16;1.45;;;1.45;;
81629;SDS011;71039;49.500;10.418;2023-11-19T06:42:41;1.50;;;1.50;;
81629;SDS011;71039;49.500;10.418;2023-11-19T06:45:07;2.25;;;2.15;;
81629;SDS011;71039;49.500;10.418;2023-11-19T06:47:33;4.80;;;4.50;;
81629;SDS011;71039;49.500;10.418;2023-11-19T06:49:58;1.90;;;1.80;;
81629;SDS011;71039;49.500;10.418;2023-11-19T06:52:24;1.88;;;1.77;;
81629;SDS011;71039;49.500;10.418;2023-11-19T06:54:49;1.83;;;1.80;;
81629;SDS011;71039;49.500;10.418;2023-11-19T06:57:15;1.55;;;1.48;;
81629;SDS011;71039;49.500;10.418;2023-11-19T06:59:41;2.55;;;2.45;;
81629;SDS011;71039;49.500;10.418;2023-11-19T07:02:07;1.98;;;1.88;;
81629;SDS011;71039;49.500;10.418;2023-11-19T07:04:33;1.17;;;1.17;;
81629;SDS011;71039;49.500;10.418;2023-11-19T07:06:58;1.83;;;1.75;;
81629;SDS011;71039;49.500;10.418;2023-11-19T07:09:24;0.95;;;0.95;;
81629;SDS011;71039;49.500;10.418;2023-11-19T07:11:50;1.85;;;1.85;;
81629;SDS011;71039;49.500;10.418;2023-11-19T07:14:15;1.70;;;1.70;;
81629;SDS011;71039;49.500;10.418;2023-11-19T07:16:41;1.80;;;1.70;;
81629;SDS011;71039;49.500;10.418;2023-11-19T07:19:07;1.10;;;1.10;;
81629;SDS011;71039;49.500;10.418;2023-11-19T07:21:33;2.42;;;2.33;;
81629;SDS011;71039;49.500;10.418;2023-11-19T07:23:58;1.95;;;1.85;;
81629;SDS011;71039;49.500;10.418;2023-11-19T07:26:25;1.75;;;1.65;;
81629;SDS011;71039;49.500;10.418;2023-11-19T07:28:50;1.48;;;1.48;;
81629;SDS011;71039;49.500;10.418;2023-11-19T07:31:16;1.40;;;1.40;;
81629;SDS011;71039;49.500;10.418;2023-11-19T07:33:42;2.30;;;2.20;;
81629;SDS011;71039;49.500;10.418;2023-11-19T07:36:08;2.20;;;2.10;;
81629;SDS011;71039;49.500;10.418;2023-11-19T07:38:34;1.30;;;1.30;;
81629;SDS011;71039;49.500;10.418;2023-11-19T07:40:59;1.20;;;1.20;;
81629;SDS011;71039;49.500;10.418;2023-11-19T07:43:25;4.03;;;2.30;;
81629;SDS011;71039;49.500;10.418;2023-11-19T07:45:51;1.38;;;1.38;;
81629;SDS011;71039;49.500;10.418;2023-11-19T07:48:16;1.23;;;1.13;;
81629;SDS011;71039;49.500;10.418;2023-11-19T07:50:42;0.90;;;0.90;;
81629;SDS011;71039;49.500;10.418;2023-11-19T07:53:07;0.82;;;0.82;;
81629;SDS011;71039;49.500;10.418;2023-11-19T07:55:33;5.15;;;4.75;;
81629;SDS011;71039;49.500;10.418;2023-11-19T07:57:59;2.33;;;2.22;;
81629;SDS011;71039;49.500;10.418;2023-11-19T08:00:24;2.08;;;1.98;;
81629;SDS011;71039;49.500;10.418;2023-11-19T08:02:50;1.40;;;1.30;;
81629;SDS011;71039;49.500;10.418;2023-11-19T08:05:15;2.42;;;2.33;;
81629;SDS011;71039;49.500;10.418;2023-11-19T08:07:41;3.58;;;3.28;;
81629;SDS011;71039;49.500;10.418;2023-11-19T08:10:07;1.65;;;1.55;;
81629;SDS011;71039;49.500;10.418;2023-11-19T08:12:32;2.00;;;1.92;;
81629;SDS011;71039;49.500;10.418;2023-11-19T08:14:58;1.60;;;1.60;;
81629;SDS011;71039;49.500;10.418;2023-11-19T08:17:24;1.30;;;1.30;;
81629;SDS011;71039;49.500;10.418;2023-11-19T08:19:49;1.35;;;1.35;;
81629;SDS011;71039;49.500;10.418;2023-11-19T08:22:15;1.30;;;1.30;;
81629;SDS011;71039;49.500;10.418;2023-11-19T08:24:41;1.65;;;1.65;;
81629;SDS011;71039;49.500;10.418;2023-11-19T08:27:06;2.50;;;2.40;;
81629;SDS011;71039;49.500;10.418;2023-11-19T08:29:32;1.20;;;1.20;;
81629;SDS011;71039;49.500;10.418;2023-11-19T08:31:57;1.48;;;1.48;;
81629;SDS011;71039;49.500;10.418;2023-11-19T08:34:26;1.90;;;1.85;;
81629;SDS011;71039;49.500;10.418;2023-11-19T08:36:51;1.38;;;1.38;;
81629;SDS011;71039;49.500;10.418;2023-11-19T08:39:17;1.35;;;1.30;;
81629;SDS011;71039;49.500;10.418;2023-11-19T08:41:42;1.75;;;1.65;;
81629;SDS011;71039;49.500;10.418;2023-11-19T08:44:08;1.67;;;1.30;;
81629;SDS011;71039;49.500;10.418;2023-11-19T08:46:33;1.40;;;1.38;;
81629;SDS011;71039;49.500;10.418;2023-11-19T08:48:59;1.50;;;1.50;;
81629;SDS011;71039;49.500;10.418;2023-11-19T08:51:24;1.75;;;1.65;;
81629;SDS011;71039;49.500;10.418;2023-11-19T08:53:50;1.20;;;1.20;;
81629;SDS011;71039;49.500;10.418;2023-11-19T08:56:16;1.50;;;1.40;;
81629;SDS011;71039;49.500;10.418;2023-11-19T08:58:41;1.05;;;1.05;;
81629;SDS011;71039;49.500;10.418;2023-11-19T09:01:07;2.45;;;2.28;;
81629;SDS011;71039;49.500;10.418;2023-11-19T09:03:32;5.97;;;5.45;;
81629;SDS011;71039;49.500;10.418;2023-11-19T09:05:58;4.85;;;2.92;;
81629;SDS011;71039;49.500;10.418;2023-11-19T09:08:24;3.60;;;3.15;;
81629;SDS011;71039;49.500;10.418;2023-11-19T09:10:50;3.45;;;2.83;;
81629;SDS011;71039;49.500;10.418;2023-11-19T09:13:15;6.60;;;5.38;;
81629;SDS011;71039;49.500;10.418;2023-11-19T09:15:41;18.13;;;13.45;;
81629;SDS011;71039;49.500;10.418;2023-11-19T09:18:07;16.83;;;11.00;;
81629;SDS011;71039;49.500;10.418;2023-11-19T09:20:32;16.15;;;9.05;;
81629;SDS011;71039;49.500;10.418;2023-11-19T09:22:58;8.68;;;5.97;;
81629;SDS011;71039;49.500;10.418;2023-11-19T09:25:23;7.80;;;6.32;;
81629;SDS011;71039;49.500;10.418;2023-11-19T09:27:49;16.27;;;12.90;;
81629;SDS011;71039;49.500;10.418;2023-11-19T09:30:14;12.80;;;9.55;;
81629;SDS011;71039;49.500;10.418;2023-11-19T09:32:40;9.68;;;6.05;;
81629;SDS011;71039;49.500;10.418;2023-11-19T09:35:05;13.65;;;11.70;;
81629;SDS011;71039;49.500;10.418;2023-11-19T09:37:31;5.57;;;3.63;;
81629;SDS011;71039;49.500;10.418;2023-11-19T09:39:57;5.50;;;4.28;;
81629;SDS011;71039;49.500;10.418;2023-11-19T09:42:23;5.50;;;4.40;;
81629;SDS011;71039;49.500;10.418;2023-11-19T09:44:49;10.70;;;9.68;;
81629;SDS011;71039;49.500;10.418;2023-11-19T09:47:15;10.52;;;9.25;;
81629;SDS011;71039;49.500;10.418;2023-11-19T09:49:44;5.50;;;4.57;;
81629;SDS011;71039;49.500;10.418;2023-11-19T09:52:09;8.13;;;4.90;;
81629;SDS011;71039;49.500;10.418;2023-11-19T09:54:35;5.97;;;3.80;;
81629;SDS011;71039;49.500;10.418;2023-11-19T09:57:00;6.53;;;5.88;;
81629;SDS011;71039;49.500;10.418;2023-11-19T09:59:27;4.45;;;3.67;;
81629;SDS011;71039;49.500;10.418;2023-11-19T10:01:53;6.20;;;4.75;;
81629;SDS011;71039;49.500;10.418;2023-11-19T10:04:19;6.18;;;5.35;;
81629;SDS011;71039;49.500;10.418;2023-11-19T10:06:45;7.70;;;5.53;;
81629;SDS011;71039;49.500;10.418;2023-11-19T10:09:11;4.28;;;2.97;;
81629;SDS011;71039;49.500;10.418;2023-11-19T10:11:37;8.15;;;7.22;;
81629;SDS011;71039;49.500;10.418;2023-11-19T10:14:03;4.63;;;4.22;;
81629;SDS011;71039;49.500;10.418;2023-11-19T10:16:29;3.75;;;3.40;;
81629;SDS011;71039;49.500;10.418;2023-11-19T10:18:55;3.03;;;2.83;;
81629;SDS011;71039;49.500;10.418;2023-11-19T10:21:21;1.90;;;1.80;;
81629;SDS011;71039;49.500;10.418;2023-11-19T10:23:53;1.30;;;1.15;;
81629;SDS011;71039;49.500;10.418;2023-11-19T10:26:22;1.77;;;1.67;;
81629;SDS011;71039;49.500;10.418;2023-11-19T10:28:48;0.93;;;0.93;;
81629;SDS011;71039;49.500;10.418;2023-11-19T10:31:14;1.38;;;1.35;;
81629;SDS011;71039;49.500;10.418;2023-11-19T10:33:41;0.90;;;0.90;;
81629;SDS011;71039;49.500;10.418;2023-11-19T10:36:06;1.60;;;1.35;;
81629;SDS011;71039;49.500;10.418;2023-11-19T10:38:32;0.80;;;0.80;;
81629;SDS011;71039;49.500;10.418;2023-11-19T10:40:59;0.85;;;0.85;;
81629;SDS011;71039;49.500;10.418;2023-11-19T10:43:24;1.05;;;1.05;;
81629;SDS011;71039;49.500;10.418;2023-11-19T10:45:50;1.00;;;1.00;;
81629;SDS011;71039;49.500;10.418;2023-11-19T10:48:16;1.80;;;1.70;;
81629;SDS011;71039;49.500;10.418;2023-11-19T10:50:42;1.17;;;1.17;;
81629;SDS011;71039;49.500;10.418;2023-11-19T10:55:36;0.85;;;0.85;;
81629;SDS011;71039;49.500;10.418;2023-11-19T10:58:03;2.25;;;1.55;;
81629;SDS011;71039;49.500;10.418;2023-11-19T11:00:30;0.73;;;0.73;;
81629;SDS011;71039;49.500;10.418;2023-11-19T11:03:02;0.52;;;0.50;;
81629;SDS011;71039;49.500;10.418;2023-11-19T11:05:35;1.50;;;0.60;;
81629;SDS011;71039;49.500;10.418;2023-11-19T11:10:29;0.65;;;0.65;;
81629;SDS011;71039;49.500;10.418;2023-11-19T11:12:59;1.48;;;0.90;;
81629;SDS011;71039;49.500;10.418;2023-11-19T11:15:27;0.95;;;0.95;;
81629;SDS011;71039;49.500;10.418;2023-11-19T11:17:57;0.80;;;0.80;;
81629;SDS011;71039;49.500;10.418;2023-11-19T11:20:25;0.93;;;0.93;;
81629;SDS011;71039;49.500;10.418;2023-11-19T11:23:34;0.63;;;0.57;;
81629;SDS011;71039;49.500;10.418;2023-11-19T11:28:58;1.50;;;1.23;;
81629;SDS011;71039;49.500;10.418;2023-11-19T11:31:36;1.48;;;1.15;;
81629;SDS011;71039;49.500;10.418;2023-11-19T11:34:36;1.58;;;1.48;;
81629;SDS011;71039;49.500;10.418;2023-11-19T11:37:21;0.95;;;0.95;;
81629;SDS011;71039;49.500;10.418;2023-11-19T11:39:57;1.00;;;1.00;;
81629;SDS011;71039;49.500;10.418;2023-11-19T11:44:58;1.25;;;1.15;;
81629;SDS011;71039;49.500;10.418;2023-11-19T11:50:09;0.93;;;0.93;;
81629;SDS011;71039;49.500;10.418;2023-11-19T11:55:51;1.80;;;1.25;;
81629;SDS011;71039;49.500;10.418;2023-11-19T11:58:18;0.68;;;0.63;;
81629;SDS011;71039;49.500;10.418;2023-11-19T12:00:44;2.33;;;2.13;;
81629;SDS011;71039;49.500;10.418;2023-11-19T12:03:12;0.80;;;0.80;;
81629;SDS011;71039;49.500;10.418;2023-11-19T12:05:38;1.05;;;1.05;;
81629;SDS011;71039;49.500;10.418;2023-11-19T12:08:07;1.52;;;1.48;;
81629;SDS011;71039;49.500;10.418;2023-11-19T12:10:36;4.55;;;1.40;;
81629;SDS011;71039;49.500;10.418;2023-11-19T12:13:09;1.40;;;1.30;;
81629;SDS011;71039;49.500;10.418;2023-11-19T12:16:06;1.60;;;1.50;;
81629;SDS011;71039;49.500;10.418;2023-11-19T12:20:52;1.27;;;1.17;;
81629;SDS011;71039;49.500;10.418;2023-11-19T12:23:18;3.22;;;0.82;;
81629;SDS011;71039;49.500;10.418;2023-11-19T12:25:44;1.00;;;1.00;;
81629;SDS011;71039;49.500;10.418;2023-11-19T12:28:12;1.50;;;1.40;;
81629;SDS011;71039;49.500;10.418;2023-11-19T12:30:41;1.05;;;1.05;;
81629;SDS011;71039;49.500;10.418;2023-11-19T12:33:10;1.17;;;1.17;;
81629;SDS011;71039;49.500;10.418;2023-11-19T12:35:40;1.13;;;1.13;;
81629;SDS011;71039;49.500;10.418;2023-11-19T12:38:06;0.90;;;0.70;;
81629;SDS011;71039;49.500;10.418;2023-11-19T12:40:31;1.13;;;1.02;;
81629;SDS011;71039;49.500;10.418;2023-11-19T12:42:57;0.60;;;0.60;;
81629;SDS011;71039;49.500;10.418;2023-11-19T12:45:23;0.95;;;0.95;;
81629;SDS011;71039;49.500;10.418;2023-11-19T12:47:48;1.70;;;1.60;;
81629;SDS011;71039;49.500;10.418;2023-11-19T12:50:15;1.05;;;0.95;;
81629;SDS011;71039;49.500;10.418;2023-11-19T12:52:41;1.30;;;1.30;;
81629;SDS011;71039;49.500;10.418;2023-11-19T12:55:27;1.00;;;1.00;;
81629;SDS011;71039;49.500;10.418;2023-11-19T12:57:53;1.10;;;1.10;;
81629;SDS011;71039;49.500;10.418;2023-11-19T13:00:19;1.08;;;1.08;;
81629;SDS011;71039;49.500;10.418;2023-11-19T13:02:52;1.10;;;1.10;;
81629;SDS011;71039;49.500;10.418;2023-11-19T13:05:21;0.98;;;0.90;;
81629;SDS011;71039;49.500;10.418;2023-11-19T13:07:46;1.40;;;1.27;;
81629;SDS011;71039;49.500;10.418;2023-11-19T13:10:12;1.98;;;1.15;;
81629;SDS011;71039;49.500;10.418;2023-11-19T13:12:38;0.98;;;0.98;;
81629;SDS011;71039;49.500;10.418;2023-11-19T13:15:03;0.60;;;0.60;;
81629;SDS011;71039;49.500;10.418;2023-11-19T13:17:29;0.70;;;0.70;;
81629;SDS011;71039;49.500;10.418;2023-11-19T13:19:55;1.30;;;1.30;;
81629;SDS011;71039;49.500;10.418;2023-11-19T13:22:20;1.52;;;1.15;;
81629;SDS011;71039;49.500;10.418;2023-11-19T13:24:46;2.40;;;1.58;;
81629;SDS011;71039;49.500;10.418;2023-11-19T13:27:11;1.20;;;1.20;;
81629;SDS011;71039;49.500;10.418;2023-11-19T13:29:38;1.38;;;1.38;;
81629;SDS011;71039;49.500;10.418;2023-11-19T13:32:04;0.82;;;0.82;;
81629;SDS011;71039;49.500;10.418;2023-11-19T13:34:29;1.33;;;1.33;;
81629;SDS011;71039;49.500;10.418;2023-11-19T13:36:55;0.70;;;0.70;;
81629;SDS011;71039;49.500;10.418;2023-11-19T13:39:20;0.82;;;0.82;;
81629;SDS011;71039;49.500;10.418;2023-11-19T13:41:46;1.50;;;1.40;;
81629;SDS011;71039;49.500;10.418;2023-11-19T13:44:11;1.13;;;1.13;;
81629;SDS011;71039;49.500;10.418;2023-11-19T13:46:37;1.35;;;1.23;;
81629;SDS011;71039;49.500;10.418;2023-11-19T13:49:02;1.13;;;0.70;;
81629;SDS011;71039;49.500;10.418;2023-11-19T13:51:28;1.40;;;1.30;;
81629;SDS011;71039;49.500;10.418;2023-11-19T13:53:53;1.83;;;1.48;;
81629;SDS011;71039;49.500;10.418;2023-11-19T13:56:19;1.20;;;1.20;;
81629;SDS011;71039;49.500;10.418;2023-11-19T13:58:45;0.93;;;0.93;;
81629;SDS011;71039;49.500;10.418;2023-11-19T14:01:10;1.27;;;1.27;;
81629;SDS011;71039;49.500;10.418;2023-11-19T14:03:37;1.67;;;1.58;;
81629;SDS011;71039;49.500;10.418;2023-11-19T14:06:02;1.55;;;1.10;;
81629;SDS011;71039;49.500;10.418;2023-11-19T14:08:28;4.30;;;1.20;;
81629;SDS011;71039;49.500;10.418;2023-11-19T14:10:53;1.15;;;1.10;;
81629;SDS011;71039;49.500;10.418;2023-11-19T14:13:19;1.40;;;1.35;;
81629;SDS011;71039;49.500;10.418;2023-11-19T14:15:44;1.30;;;1.27;;
81629;SDS011;71039;49.500;10.418;2023-11-19T14:18:10;0.82;;;0.82;;
81629;SDS011;71039;49.500;10.418;2023-11-19T14:20:35;1.10;;;1.10;;
81629;SDS011;71039;49.500;10.418;2023-11-19T14:23:01;1.75;;;1.70;;
81629;SDS011;71039;49.500;10.418;2023-11-19T14:25:26;1.45;;;1.33;;
81629;SDS011;71039;49.500;10.418;2023-11-19T14:27:52;1.48;;;1.05;;
81629;SDS011;71039;49.500;10.418;2023-11-19T14:30:17;1.50;;;1.40;;
81629;SDS011;71039;49.500;10.418;2023-11-19T14:32:43;1.67;;;1.13;;
81629;SDS011;71039;49.500;10.418;2023-11-19T14:35:09;1.50;;;1.40;;
81629;SDS011;71039;49.500;10.418;2023-11-19T14:37:34;0.95;;;0.95;;
81629;SDS011;71039;49.500;10.418;2023-11-19T14:40:00;0.80;;;0.70;;
81629;SDS011;71039;49.500;10.418;2023-11-19T14:42:26;1.13;;;1.10;;
81629;SDS011;71039;49.500;10.418;2023-11-19T14:44:52;0.82;;;0.80;;
81629;SDS011;71039;49.500;10.418;2023-11-19T14:47:17;0.70;;;0.70;;
81629;SDS011;71039;49.500;10.418;2023-11-19T14:49:43;1.58;;;1.58;;
81629;SDS011;71039;49.500;10.418;2023-11-19T14:52:09;1.50;;;1.40;;